createdAt,value
2019-05-26T00:01:23.592Z,12.80
2019-05-26T00:03:52.001Z,12.80
2019-05-26T00:06:20.415Z,12.80
2019-05-26T00:08:49.110Z,12.80
2019-05-26T00:11:17.517Z,12.80
2019-05-26T00:13:45.942Z,12.80
2019-05-26T00:16:14.345Z,12.70
2019-05-26T00:18:42.799Z,12.60
2019-05-26T00:21:11.258Z,12.50
2019-05-26T00:23:39.687Z,12.50
2019-05-26T00:26:08.091Z,12.60
2019-05-26T00:28:36.502Z,12.60
2019-05-26T00:31:04.911Z,12.50
2019-05-26T00:33:33.321Z,12.50
2019-05-26T00:36:01.731Z,12.40
2019-05-26T00:38:30.148Z,12.30
2019-05-26T00:40:59.018Z,12.10
2019-05-26T00:43:27.433Z,11.90
2019-05-26T00:45:55.837Z,11.70
2019-05-26T00:48:24.259Z,11.60
2019-05-26T00:50:52.665Z,11.60
2019-05-26T00:53:21.098Z,11.60
2019-05-26T00:55:49.512Z,11.40
2019-05-26T00:58:17.943Z,11.30
2019-05-26T01:00:46.349Z,11.20
2019-05-26T01:03:14.780Z,11.20
2019-05-26T01:05:43.183Z,11.30
2019-05-26T01:08:11.817Z,11.30
2019-05-26T01:10:40.235Z,11.30
2019-05-26T01:13:08.791Z,11.20
2019-05-26T01:15:37.275Z,11.30
2019-05-26T01:18:06.234Z,11.10
2019-05-26T01:20:34.647Z,11.00
2019-05-26T01:23:03.126Z,10.90
2019-05-26T01:25:31.686Z,10.80
2019-05-26T01:28:00.099Z,10.70
2019-05-26T01:30:38.760Z,10.80
2019-05-26T01:33:07.407Z,10.70
2019-05-26T01:35:39.495Z,10.60
2019-05-26T01:38:22.641Z,10.60
2019-05-26T01:40:40.123Z,10.60
2019-05-26T01:43:08.674Z,10.60
2019-05-26T01:45:37.091Z,10.70
2019-05-26T01:48:07.240Z,10.70
2019-05-26T01:50:36.087Z,10.70
2019-05-26T01:53:05.144Z,10.60
2019-05-26T01:55:33.573Z,10.60
2019-05-26T01:58:01.991Z,10.70
2019-05-26T02:00:30.477Z,10.70
2019-05-26T02:02:59.054Z,10.70
2019-05-26T02:05:27.469Z,10.70
2019-05-26T02:07:55.887Z,10.70
2019-05-26T02:10:24.298Z,10.70
2019-05-26T02:12:52.715Z,10.70
2019-05-26T02:15:21.475Z,10.70
2019-05-26T02:17:49.874Z,10.50
2019-05-26T02:20:19.626Z,10.50
2019-05-26T02:22:48.032Z,10.40
2019-05-26T02:25:16.884Z,10.40
2019-05-26T02:27:45.295Z,10.20
2019-05-26T02:30:14.044Z,10.20
2019-05-26T02:32:42.450Z,10.10
2019-05-26T02:35:11.202Z,10.00
2019-05-26T02:37:39.602Z,10.00
2019-05-26T02:40:08.856Z,10.00
2019-05-26T02:42:37.427Z,9.90
2019-05-26T02:45:10.016Z,9.90
2019-05-26T02:47:38.415Z,9.90
2019-05-26T02:50:07.661Z,9.90
2019-05-26T02:52:36.069Z,9.90
2019-05-26T02:55:05.816Z,9.90
2019-05-26T02:57:34.220Z,9.90
2019-05-26T03:00:02.619Z,9.80
2019-05-26T03:02:31.099Z,9.80
2019-05-26T03:04:59.589Z,9.70
2019-05-26T03:07:28.721Z,9.70
2019-05-26T03:09:58.566Z,9.60
2019-05-26T03:12:28.676Z,9.50
2019-05-26T03:14:58.805Z,9.50
2019-05-26T03:17:30.381Z,9.50
2019-05-26T03:20:00.919Z,9.40
2019-05-26T03:22:29.463Z,9.40
2019-05-26T03:25:00.603Z,9.40
2019-05-26T03:27:29.002Z,9.40
2019-05-26T03:29:57.410Z,9.40
2019-05-26T03:32:25.808Z,9.40
2019-05-26T03:34:54.210Z,9.40
2019-05-26T03:37:22.618Z,9.40
2019-05-26T03:39:51.054Z,9.40
2019-05-26T03:42:19.455Z,9.40
2019-05-26T03:44:47.859Z,9.40
2019-05-26T03:47:16.952Z,9.40
2019-05-26T03:49:45.744Z,9.40
2019-05-26T03:52:14.158Z,9.30
2019-05-26T03:54:42.625Z,9.30
2019-05-26T03:57:11.048Z,9.30
2019-05-26T03:59:39.491Z,9.40
2019-05-26T04:02:07.963Z,9.40
2019-05-26T04:04:36.373Z,9.40
2019-05-26T04:07:04.843Z,9.40
2019-05-26T04:09:33.322Z,9.30
2019-05-26T04:12:01.724Z,9.30
2019-05-26T04:14:30.123Z,9.40
2019-05-26T04:16:59.026Z,9.40
2019-05-26T04:19:27.496Z,9.40
2019-05-26T04:21:55.897Z,9.40
2019-05-26T04:24:24.292Z,9.40
2019-05-26T04:26:52.737Z,9.50
2019-05-26T04:29:21.136Z,9.50
2019-05-26T04:31:49.545Z,9.50
2019-05-26T04:34:17.948Z,9.50
2019-05-26T04:36:46.363Z,9.60
2019-05-26T04:39:14.750Z,9.60
2019-05-26T04:41:43.160Z,9.70
2019-05-26T04:44:11.564Z,9.70
2019-05-26T04:46:39.973Z,9.80
2019-05-26T04:49:08.449Z,9.80
2019-05-26T04:51:36.855Z,9.80
2019-05-26T04:54:05.335Z,9.90
2019-05-26T04:56:33.726Z,10.00
2019-05-26T04:59:02.139Z,10.10
2019-05-26T05:01:30.773Z,10.20
2019-05-26T05:03:59.178Z,10.20
2019-05-26T05:06:27.597Z,10.20
2019-05-26T05:08:56.003Z,10.30
2019-05-26T05:11:24.426Z,10.30
2019-05-26T05:13:52.846Z,10.40
2019-05-26T05:16:21.260Z,10.50
2019-05-26T05:18:49.666Z,10.50
2019-05-26T05:21:18.075Z,10.50
2019-05-26T05:23:46.550Z,10.60
2019-05-26T05:26:14.963Z,10.60
2019-05-26T05:28:43.365Z,10.70
2019-05-26T05:31:11.783Z,10.70
2019-05-26T05:33:40.191Z,10.90
2019-05-26T05:36:08.607Z,11.00
2019-05-26T05:38:37.016Z,11.10
2019-05-26T05:41:05.437Z,11.20
2019-05-26T05:43:33.846Z,11.30
2019-05-26T05:46:02.258Z,11.50
2019-05-26T05:48:30.666Z,11.60
2019-05-26T05:50:59.078Z,11.70
2019-05-26T05:53:27.481Z,11.80
2019-05-26T05:55:55.886Z,12.00
2019-05-26T05:58:24.297Z,12.10
2019-05-26T06:00:52.703Z,12.20
2019-05-26T06:03:21.116Z,12.30
2019-05-26T06:05:49.522Z,12.30
2019-05-26T06:08:18.098Z,12.60
2019-05-26T06:10:46.539Z,12.80
2019-05-26T06:13:14.946Z,13.00
2019-05-26T06:15:43.354Z,13.00
2019-05-26T06:18:11.835Z,13.10
2019-05-26T06:20:40.237Z,13.30
2019-05-26T06:23:08.934Z,13.60
2019-05-26T06:25:37.769Z,13.70
2019-05-26T06:28:06.258Z,13.90
2019-05-26T06:30:34.658Z,14.00
2019-05-26T06:33:03.071Z,14.10
2019-05-26T06:35:32.724Z,14.30
2019-05-26T06:38:01.466Z,14.40
2019-05-26T06:40:29.869Z,14.70
2019-05-26T06:42:58.275Z,14.90
2019-05-26T06:45:26.672Z,15.30
2019-05-26T06:47:55.087Z,15.60
2019-05-26T06:50:23.491Z,15.70
2019-05-26T06:52:51.907Z,15.90
2019-05-26T06:55:20.311Z,16.30
2019-05-26T06:57:48.723Z,17.20
2019-05-26T07:00:17.669Z,18.30
2019-05-26T07:02:46.079Z,19.40
2019-05-26T07:05:18.275Z,20.10
2019-05-26T07:07:44.618Z,20.90
2019-05-26T07:10:14.826Z,21.70
2019-05-26T07:12:43.243Z,22.40
2019-05-26T07:15:11.885Z,23.00
2019-05-26T07:17:40.308Z,23.30
2019-05-26T07:20:09.293Z,24.00
2019-05-26T07:22:37.830Z,24.60
2019-05-26T07:25:09.706Z,26.00
2019-05-26T07:27:38.225Z,26.80
2019-05-26T07:30:07.875Z,27.40
2019-05-26T07:32:36.322Z,28.20
2019-05-26T07:35:08.450Z,28.00
2019-05-26T07:37:36.855Z,28.50
2019-05-26T07:40:06.099Z,28.50
2019-05-26T07:42:34.850Z,29.20
2019-05-26T07:45:04.706Z,29.50
2019-05-26T07:47:33.120Z,29.40
2019-05-26T07:50:01.551Z,31.00
2019-05-26T07:52:29.957Z,30.10
2019-05-26T07:54:58.361Z,31.50
2019-05-26T07:57:26.772Z,31.80
2019-05-26T07:59:55.182Z,32.10
2019-05-26T08:02:23.593Z,31.80
2019-05-26T08:04:52.079Z,32.40
2019-05-26T08:07:23.040Z,31.90
2019-05-26T08:09:50.631Z,33.50
2019-05-26T08:12:26.120Z,34.10
2019-05-26T08:14:49.168Z,34.00
2019-05-26T08:17:17.595Z,33.40
2019-05-26T08:19:46.054Z,32.90
2019-05-26T08:22:14.460Z,33.30
2019-05-26T08:24:42.861Z,33.40
2019-05-26T08:27:11.258Z,32.90
2019-05-26T08:29:39.678Z,33.20
2019-05-26T08:32:08.078Z,33.40
2019-05-26T08:34:36.485Z,34.20
2019-05-26T08:37:04.895Z,34.10
2019-05-26T08:39:33.306Z,33.40
2019-05-26T08:42:01.723Z,32.00
2019-05-26T08:44:30.138Z,29.30
2019-05-26T08:46:58.545Z,28.70
2019-05-26T08:49:26.950Z,29.10
2019-05-26T08:51:55.365Z,29.70
2019-05-26T08:54:23.770Z,30.50
2019-05-26T08:56:52.183Z,31.30
2019-05-26T08:59:20.597Z,30.90
2019-05-26T09:01:49.022Z,31.50
2019-05-26T09:04:17.415Z,31.20
2019-05-26T09:06:45.823Z,32.00
2019-05-26T09:09:14.228Z,31.40
2019-05-26T09:11:42.638Z,32.00
2019-05-26T09:14:11.037Z,32.30
2019-05-26T09:16:39.449Z,32.20
2019-05-26T09:19:07.858Z,32.80
2019-05-26T09:21:36.263Z,31.70
2019-05-26T09:24:04.818Z,30.90
2019-05-26T09:26:33.240Z,29.10
2019-05-26T09:29:01.662Z,29.70
2019-05-26T09:31:30.065Z,30.30
2019-05-26T09:33:58.484Z,30.20
2019-05-26T09:36:26.893Z,31.00
2019-05-26T09:38:55.305Z,31.90
2019-05-26T09:41:23.714Z,32.40
2019-05-26T09:43:52.129Z,32.90
2019-05-26T09:46:20.530Z,33.20
2019-05-26T09:48:48.952Z,33.60
2019-05-26T09:51:17.359Z,33.60
2019-05-26T09:53:59.077Z,33.30
2019-05-26T09:56:15.910Z,33.10
2019-05-26T09:58:44.330Z,33.90
2019-05-26T10:01:12.742Z,33.30
2019-05-26T10:03:41.175Z,31.60
2019-05-26T10:06:09.647Z,31.70
2019-05-26T10:08:38.113Z,31.20
2019-05-26T10:11:06.517Z,31.90
2019-05-26T10:13:34.929Z,31.70
2019-05-26T10:16:03.342Z,31.00
2019-05-26T10:18:31.750Z,31.90
2019-05-26T10:21:00.306Z,32.10
2019-05-26T10:23:28.736Z,31.50
2019-05-26T10:25:57.203Z,31.10
2019-05-26T10:28:25.610Z,31.50
2019-05-26T10:30:54.018Z,32.50
2019-05-26T10:33:22.431Z,31.70
2019-05-26T10:35:50.850Z,31.20
2019-05-26T10:38:19.254Z,31.90
2019-05-26T10:40:47.663Z,32.30
2019-05-26T10:43:16.073Z,32.50
2019-05-26T10:45:44.549Z,32.10
2019-05-26T10:48:13.091Z,32.50
2019-05-26T10:50:41.515Z,32.40
2019-05-26T10:53:09.922Z,31.80
2019-05-26T10:55:38.334Z,31.10
2019-05-26T10:58:06.811Z,30.30
2019-05-26T11:00:35.230Z,30.90
2019-05-26T11:03:03.713Z,30.40
2019-05-26T11:05:32.141Z,30.00
2019-05-26T11:08:00.555Z,30.60
2019-05-26T11:10:29.045Z,31.20
2019-05-26T11:12:57.445Z,31.40
2019-05-26T11:15:25.910Z,31.20
2019-05-26T11:17:54.326Z,31.40
2019-05-26T11:20:22.978Z,31.60
2019-05-26T11:22:51.388Z,31.00
2019-05-26T11:25:19.806Z,31.00
2019-05-26T11:27:48.214Z,30.60
2019-05-26T11:30:17.077Z,30.20
2019-05-26T11:32:45.483Z,30.30
2019-05-26T11:35:14.152Z,29.10
2019-05-26T11:37:42.553Z,29.00
2019-05-26T11:40:11.413Z,29.10
2019-05-26T11:42:39.821Z,27.40
2019-05-26T11:45:09.326Z,26.80
2019-05-26T11:47:37.724Z,26.90
2019-05-26T11:50:07.280Z,27.00
2019-05-26T11:52:35.834Z,26.10
2019-05-26T11:55:06.966Z,26.20
2019-05-26T11:57:37.031Z,27.10
2019-05-26T12:00:09.472Z,27.30
2019-05-26T12:02:38.611Z,27.20
2019-05-26T12:05:07.966Z,26.40
2019-05-26T12:07:36.403Z,25.50
2019-05-26T12:10:06.620Z,25.50
2019-05-26T12:12:35.023Z,26.20
2019-05-26T12:15:05.042Z,26.90
2019-05-26T12:17:33.447Z,27.00
2019-05-26T12:20:05.138Z,26.40
2019-05-26T12:22:31.983Z,26.50
2019-05-26T12:25:00.584Z,26.70
2019-05-26T12:27:28.976Z,27.40
2019-05-26T12:29:57.398Z,26.60
2019-05-26T12:32:25.805Z,26.50
2019-05-26T12:34:54.213Z,26.10
2019-05-26T12:37:22.632Z,26.00
2019-05-26T12:39:51.030Z,25.10
2019-05-26T12:42:19.503Z,24.50
2019-05-26T12:44:49.800Z,24.30
2019-05-26T12:47:18.038Z,24.00
2019-05-26T12:49:46.610Z,24.80
2019-05-26T12:52:15.096Z,25.20
2019-05-26T12:54:43.498Z,25.40
2019-05-26T12:57:12.154Z,26.10
2019-05-26T12:59:40.557Z,26.30
2019-05-26T13:02:08.974Z,26.40
2019-05-26T13:04:37.378Z,26.10
2019-05-26T13:07:05.861Z,26.00
2019-05-26T13:09:34.271Z,26.60
2019-05-26T13:12:02.683Z,26.50
2019-05-26T13:14:31.087Z,26.00
2019-05-26T13:17:01.499Z,25.40
2019-05-26T13:19:29.633Z,25.70
2019-05-26T13:21:58.043Z,25.50
2019-05-26T13:24:26.450Z,25.00
2019-05-26T13:26:54.942Z,24.70
2019-05-26T13:29:25.901Z,25.10
2019-05-26T13:31:53.792Z,25.00
2019-05-26T13:34:22.261Z,25.10
2019-05-26T13:36:50.670Z,25.20
2019-05-26T13:39:19.083Z,25.30
2019-05-26T13:41:47.507Z,25.20
2019-05-26T13:44:15.987Z,24.90
2019-05-26T13:46:44.400Z,24.70
2019-05-26T13:49:12.830Z,24.20
2019-05-26T13:51:41.261Z,24.00
2019-05-26T13:54:09.719Z,24.30
2019-05-26T13:56:38.132Z,24.80
2019-05-26T13:59:06.521Z,24.60
2019-05-26T14:01:34.938Z,24.40
2019-05-26T14:04:03.342Z,24.60
2019-05-26T14:06:31.756Z,25.00
2019-05-26T14:09:02.149Z,25.10
2019-05-26T14:11:30.298Z,25.30
2019-05-26T14:13:58.711Z,25.50
2019-05-26T14:16:29.158Z,25.70
2019-05-26T14:18:58.497Z,25.30
2019-05-26T14:21:26.918Z,25.50
2019-05-26T14:23:55.317Z,25.50
2019-05-26T14:26:23.729Z,25.50
2019-05-26T14:28:52.134Z,25.70
2019-05-26T14:31:30.862Z,25.50
2019-05-26T14:33:59.892Z,25.20
2019-05-26T14:36:28.317Z,24.80
2019-05-26T14:38:56.717Z,24.40
2019-05-26T14:41:25.139Z,24.40
2019-05-26T14:43:53.551Z,24.40
2019-05-26T14:46:21.955Z,24.40
2019-05-26T14:48:50.371Z,24.10
2019-05-26T14:51:18.771Z,24.40
2019-05-26T14:53:47.174Z,24.50
2019-05-26T14:56:15.586Z,24.30
2019-05-26T14:58:43.994Z,24.20
2019-05-26T15:01:12.408Z,24.00
2019-05-26T15:03:40.806Z,23.90
2019-05-26T15:06:09.214Z,23.80
2019-05-26T15:08:41.414Z,23.50
2019-05-26T15:11:09.817Z,23.40
2019-05-26T15:13:38.234Z,23.70
2019-05-26T15:16:10.322Z,23.70
2019-05-26T15:18:37.014Z,23.50
2019-05-26T15:21:05.490Z,23.60
2019-05-26T15:23:33.892Z,23.70
2019-05-26T15:26:05.303Z,23.70
2019-05-26T15:28:32.678Z,23.60
2019-05-26T15:31:01.099Z,23.60
2019-05-26T15:33:29.554Z,23.50
2019-05-26T15:35:57.953Z,23.60
2019-05-26T15:38:41.696Z,23.50
2019-05-26T15:40:56.492Z,23.70
2019-05-26T15:43:24.896Z,23.60
2019-05-26T15:45:53.310Z,23.60
2019-05-26T15:48:21.736Z,23.40
2019-05-26T15:50:50.138Z,23.40
2019-05-26T15:53:18.559Z,23.20
2019-05-26T15:55:46.967Z,23.10
2019-05-26T15:58:15.383Z,23.00
2019-05-26T16:00:43.788Z,22.90
2019-05-26T16:03:12.209Z,22.80
2019-05-26T16:05:40.620Z,22.80
2019-05-26T16:08:09.037Z,22.60
2019-05-26T16:10:37.451Z,22.50
2019-05-26T16:13:05.867Z,22.30
2019-05-26T16:15:34.266Z,22.10
2019-05-26T16:18:02.683Z,21.90
2019-05-26T16:20:31.142Z,21.70
2019-05-26T16:22:59.615Z,21.60
2019-05-26T16:25:28.028Z,21.60
2019-05-26T16:27:56.438Z,21.60
2019-05-26T16:30:24.847Z,21.70
2019-05-26T16:32:53.269Z,21.70
2019-05-26T16:35:21.667Z,21.70
2019-05-26T16:37:50.073Z,21.80
2019-05-26T16:40:18.546Z,21.80
2019-05-26T16:42:46.958Z,21.80
2019-05-26T16:45:16.374Z,21.80
2019-05-26T16:47:44.787Z,21.90
2019-05-26T16:50:13.325Z,21.90
2019-05-26T16:52:41.741Z,21.90
2019-05-26T16:55:10.587Z,22.00
2019-05-26T16:57:38.998Z,21.80
2019-05-26T17:00:09.248Z,21.90
2019-05-26T17:02:37.649Z,21.80
2019-05-26T17:05:07.495Z,21.80
2019-05-26T17:07:35.900Z,21.70
2019-05-26T17:10:06.242Z,21.60
2019-05-26T17:12:34.650Z,21.50
2019-05-26T17:15:03.065Z,21.50
2019-05-26T17:17:31.460Z,21.40
2019-05-26T17:19:59.869Z,21.40
2019-05-26T17:22:28.274Z,21.30
2019-05-26T17:24:59.825Z,21.30
2019-05-26T17:27:26.807Z,21.20
2019-05-26T17:29:55.214Z,21.10
2019-05-26T17:32:23.612Z,20.90
2019-05-26T17:34:52.009Z,20.80
2019-05-26T17:37:20.418Z,20.70
2019-05-26T17:39:48.843Z,20.60
2019-05-26T17:42:17.323Z,20.50
2019-05-26T17:44:45.736Z,20.50
2019-05-26T17:47:28.866Z,20.50
2019-05-26T17:49:44.270Z,20.30
2019-05-26T17:52:12.686Z,20.10
2019-05-26T17:54:41.108Z,19.90
2019-05-26T17:57:09.591Z,19.80
2019-05-26T17:59:38.015Z,19.70
2019-05-26T18:02:06.486Z,19.40
2019-05-26T18:04:34.902Z,19.30
2019-05-26T18:07:03.447Z,19.30
2019-05-26T18:09:43.740Z,19.10
2019-05-26T18:12:01.991Z,19.00
2019-05-26T18:14:30.394Z,19.00
2019-05-26T18:16:58.853Z,18.90
2019-05-26T18:19:29.591Z,18.80
2019-05-26T18:21:57.424Z,18.70
2019-05-26T18:24:25.830Z,18.70
2019-05-26T18:26:54.243Z,18.70
2019-05-26T18:29:22.679Z,18.60
2019-05-26T18:31:51.181Z,18.50
2019-05-26T18:34:19.648Z,18.40
2019-05-26T18:36:48.050Z,18.30
2019-05-26T18:39:16.459Z,18.10
2019-05-26T18:41:44.863Z,18.00
2019-05-26T18:44:13.269Z,17.90
2019-05-26T18:46:41.683Z,17.80
2019-05-26T18:49:10.095Z,17.70
2019-05-26T18:51:38.500Z,17.60
2019-05-26T18:54:06.897Z,17.40
2019-05-26T18:56:35.306Z,17.30
2019-05-26T18:59:03.720Z,17.20
2019-05-26T19:01:32.193Z,17.00
2019-05-26T19:04:00.609Z,16.90
2019-05-26T19:06:29.016Z,16.70
2019-05-26T19:08:57.434Z,16.60
2019-05-26T19:11:25.834Z,16.50
2019-05-26T19:13:54.251Z,16.30
2019-05-26T19:16:22.658Z,16.20
2019-05-26T19:18:51.062Z,16.10
2019-05-26T19:21:19.467Z,16.10
2019-05-26T19:23:47.887Z,16.00
2019-05-26T19:26:16.290Z,15.90
2019-05-26T19:28:44.691Z,15.70
2019-05-26T19:31:13.093Z,15.50
2019-05-26T19:33:41.503Z,15.40
2019-05-26T19:36:09.985Z,15.30
2019-05-26T19:38:38.406Z,15.20
2019-05-26T19:41:06.834Z,15.10
2019-05-26T19:43:35.300Z,14.90
2019-05-26T19:46:03.723Z,14.80
2019-05-26T19:48:36.546Z,14.70
2019-05-26T19:51:02.258Z,14.60
2019-05-26T19:53:30.662Z,14.50
2019-05-26T19:55:59.070Z,14.40
2019-05-26T19:58:28.625Z,14.40
2019-05-26T20:00:57.263Z,14.40
2019-05-26T20:03:25.665Z,14.30
2019-05-26T20:05:54.072Z,14.20
2019-05-26T20:08:22.488Z,14.10
2019-05-26T20:10:51.143Z,14.10
2019-05-26T20:13:19.613Z,14.10
2019-05-26T20:15:48.024Z,14.10
2019-05-26T20:18:16.424Z,14.00
2019-05-26T20:20:44.835Z,13.90
2019-05-26T20:23:13.244Z,13.90
2019-05-26T20:25:41.650Z,13.80
2019-05-26T20:28:10.100Z,13.80
2019-05-26T20:30:38.547Z,13.70
2019-05-26T20:33:06.961Z,13.70
2019-05-26T20:35:35.434Z,13.80
2019-05-26T20:38:03.918Z,13.90
2019-05-26T20:40:32.334Z,14.00
2019-05-26T20:43:00.743Z,13.90
2019-05-26T20:45:29.402Z,13.80
2019-05-26T20:47:57.806Z,13.70
2019-05-26T20:50:29.609Z,13.60
2019-05-26T20:52:56.385Z,13.60
2019-05-26T20:55:24.857Z,13.60
2019-05-26T20:57:53.258Z,13.80
2019-05-26T21:00:22.503Z,13.80
2019-05-26T21:02:50.984Z,13.70
2019-05-26T21:05:19.535Z,13.60
2019-05-26T21:07:47.942Z,13.50
2019-05-26T21:10:16.694Z,13.30
2019-05-26T21:12:45.131Z,13.30
2019-05-26T21:15:14.027Z,13.20
2019-05-26T21:17:42.452Z,13.20
2019-05-26T21:20:11.099Z,13.20
2019-05-26T21:22:39.503Z,13.10
2019-05-26T21:25:08.347Z,13.10
2019-05-26T21:27:36.754Z,13.30
2019-05-26T21:30:09.614Z,13.30
2019-05-26T21:32:38.038Z,13.40
2019-05-26T21:35:07.244Z,13.40
2019-05-26T21:37:35.705Z,13.30
2019-05-26T21:40:06.038Z,13.40
2019-05-26T21:42:34.450Z,13.30
2019-05-26T21:45:02.923Z,13.30
2019-05-26T21:47:31.330Z,13.30
2019-05-26T21:49:59.738Z,13.30
2019-05-26T21:52:28.145Z,13.30
2019-05-26T21:54:56.566Z,13.30
2019-05-26T21:57:24.997Z,13.30
2019-05-26T21:59:53.402Z,13.20
2019-05-26T22:02:21.813Z,13.20
2019-05-26T22:04:50.219Z,13.20
2019-05-26T22:07:18.644Z,13.10
2019-05-26T22:09:47.051Z,13.10
2019-05-26T22:12:15.883Z,13.00
2019-05-26T22:14:44.459Z,12.90
2019-05-26T22:17:12.866Z,12.90
2019-05-26T22:19:41.274Z,12.80
2019-05-26T22:22:09.689Z,12.60
2019-05-26T22:24:38.098Z,12.40
2019-05-26T22:27:06.508Z,12.30
2019-05-26T22:29:34.910Z,12.20
2019-05-26T22:32:03.318Z,12.20
2019-05-26T22:34:31.727Z,12.30
2019-05-26T22:37:00.144Z,12.40
2019-05-26T22:39:28.574Z,12.40
2019-05-26T22:41:57.049Z,12.40
2019-05-26T22:44:25.457Z,12.50
2019-05-26T22:46:53.871Z,12.50
2019-05-26T22:49:22.263Z,12.40
2019-05-26T22:51:50.687Z,12.40
2019-05-26T22:54:19.096Z,12.40
2019-05-26T22:56:47.510Z,12.30
2019-05-26T22:59:15.922Z,12.20
2019-05-26T23:01:44.354Z,12.00
2019-05-26T23:04:12.880Z,12.00
2019-05-26T23:06:41.298Z,11.80
2019-05-26T23:09:09.707Z,11.80
2019-05-26T23:11:38.130Z,11.80
2019-05-26T23:14:06.535Z,11.80
2019-05-26T23:16:34.950Z,11.80
2019-05-26T23:19:18.274Z,11.90
2019-05-26T23:21:33.566Z,11.90
2019-05-26T23:24:01.971Z,11.70
2019-05-26T23:26:30.366Z,11.60
2019-05-26T23:28:58.774Z,11.40
2019-05-26T23:31:27.176Z,11.30
2019-05-26T23:33:55.581Z,11.20
2019-05-26T23:36:23.986Z,11.20
2019-05-26T23:38:52.389Z,11.10
2019-05-26T23:41:20.798Z,11.10
2019-05-26T23:43:49.235Z,11.00
2019-05-26T23:46:17.639Z,10.90
2019-05-26T23:48:46.223Z,10.80
2019-05-26T23:51:14.635Z,10.70
2019-05-26T23:53:43.042Z,10.70
2019-05-26T23:56:11.450Z,10.70
2019-05-26T23:58:39.861Z,10.70
